Pacific Journey — 3FFE — position and weather

sailwx.info

Track history (hours):
 
Tides and Currents Weather Stations Pressure Air Temp Water Temp Dewpoint Dewpoint Depression Visibility Wind Speed Wind Dir Waves Ship Positions

Pacific Journey

Last reported at 2017-Feb-23 21:32 UTC. Time now 2017-Feb-25 15:52 UTC.
Position N 35°57' W 005°37'.

Length 180 m; draft 9.5 m.

Type: Cargo ship. MMSI: 371467000.

Date/timePositionNaut miles runAvg speedWind from/ knotsBaromVisibWave heightAir tempDewpointWater temp
2017-Feb-23 21:32N 35°57' W 005°37'1010.6
2017-Feb-23 20:33N 36°01' W 005°25'7 7.2
2017-Feb-23 19:34N 36°08' W 005°22'0 0.1
2017-Feb-23 18:34N 36°08' W 005°22'0 0.0
2017-Feb-23 17:34N 36°08' W 005°22'0 0.1
2017-Feb-23 16:33N 36°08' W 005°22'0 0.1
2017-Feb-23 15:34N 36°08' W 005°22'0 0.1
2017-Feb-23 14:33N 36°08' W 005°22'0 0.2
2017-Feb-23 13:34N 36°08' W 005°22'0 0.0
2017-Feb-23 12:34N 36°08' W 005°22'0 0.0
2017-Feb-23 11:33N 36°08' W 005°22'0 0.0
2017-Feb-23 10:34N 36°08' W 005°22'4 3.9
2017-Feb-23 09:33N 36°05' W 005°20'3 3.3
2017-Feb-23 08:34N 36°04' W 005°16'7 6.9
2017-Feb-23 07:33N 36°07' W 005°08'3 3.1
2017-Feb-23 06:33N 36°06' W 005°04'1 0.7
2017-Feb-23 05:32N 36°06' W 005°03'0 0.1
2017-Feb-23 04:33N 36°06' W 005°03'1 1.0
2017-Feb-23 03:33N 36°06' W 005°02'1 0.9
2017-Feb-23 02:23N 36°07' W 005°02'0 0.5
2017-Feb-23 01:24N 36°08' W 005°02'1 1.1
2017-Feb-23 00:30N 36°07' W 005°03'0 0.4
2017-Feb-22 23:23N 36°07' W 005°03'1 1.0
2017-Feb-22 22:31N 36°07' W 005°02'1 0.6
2017-Feb-22 21:30N 36°07' W 005°03'1 1.4
2017-Feb-22 20:27N 36°08' W 005°01'3 2.9
2017-Feb-22 19:31N 36°07' W 004°58'2 1.9
2017-Feb-22 18:33N 36°06' W 005°00'1 0.6
2017-Feb-22 17:32N 36°06' W 004°60'0 0.1
2017-Feb-22 16:14N 36°06' W 004°60'2 2.4
2017-Feb-22 15:33N 36°06' W 005°02'1 0.8
2017-Feb-22 14:27N 36°07' W 005°03'2 1.1
2017-Feb-22 12:33N 36°09' W 005°02'1 1.0
2017-Feb-22 11:33N 36°09' W 005°01'1 1.0
2017-Feb-22 10:33N 36°09' W 005°02'0 0.3
2017-Feb-22 09:31N 36°09' W 005°02'2 1.2
2017-Feb-22 07:33N 36°10' W 004°60'3 2.7
2017-Feb-22 06:31N 36°13' W 004°57'7 7.7
2017-Feb-22 05:33N 36°19' W 004°52'2 0.8
2017-Feb-22 03:33N 36°17' W 004°53'2 0.4
2017-Feb-21 21:32N 36°15' W 004°54'9 1.2
2017-Feb-21 14:23N 36°10' W 005°02'5 6.0
2017-Feb-21 13:33N 36°09' W 005°08'3 3.0
2017-Feb-21 12:34N 36°10' W 005°12'2 1.8
2017-Feb-21 11:34N 36°10' W 005°10'1 1.4
2017-Feb-21 10:31N 36°10' W 005°08'2 2.5
2017-Feb-21 09:34N 36°08' W 005°10'7 6.3
2017-Feb-21 08:31N 36°08' W 005°02'  
2017-Feb-18 07:33N 36°37' E 013°29'1312.6
2017-Feb-18 06:33N 36°33' E 013°44'1212.5
2017-Feb-18 05:33N 36°29' E 013°59'1312.7
2017-Feb-18 04:33N 36°25' E 014°14'1312.8
2017-Feb-18 03:33N 36°21' E 014°29'1312.7
2017-Feb-18 02:33N 36°20' E 014°44'1412.5
2017-Feb-18 01:27N 36°20' E 015°01'1212.4
2017-Feb-18 00:27N 36°19' E 015°17'  
Track history (hours):
 
Tides and Currents Weather Stations Pressure Air Temp Water Temp Dewpoint Dewpoint Depression Visibility Wind Speed Wind Dir Waves Ship Positions

Pacific Journey

Last reported at 2017-Feb-23 21:32 UTC. Time now 2017-Feb-25 15:52 UTC.
Position N 35°57' W 005°37'.

Length 180 m; draft 9.5 m.

Type: Cargo ship. MMSI: 371467000.

Date/timePositionNaut miles runAvg speedWind from/ knotsBaromVisibWave heightAir tempDewpointWater temp
2017-Feb-23 21:32N 35°57' W 005°37'1010.6
2017-Feb-23 20:33N 36°01' W 005°25'7 7.2
2017-Feb-23 19:34N 36°08' W 005°22'0 0.1
2017-Feb-23 18:34N 36°08' W 005°22'0 0.0
2017-Feb-23 17:34N 36°08' W 005°22'0 0.1
2017-Feb-23 16:33N 36°08' W 005°22'0 0.1
2017-Feb-23 15:34N 36°08' W 005°22'0 0.1
2017-Feb-23 14:33N 36°08' W 005°22'0 0.2
2017-Feb-23 13:34N 36°08' W 005°22'0 0.0
2017-Feb-23 12:34N 36°08' W 005°22'0 0.0
2017-Feb-23 11:33N 36°08' W 005°22'0 0.0
2017-Feb-23 10:34N 36°08' W 005°22'4 3.9
2017-Feb-23 09:33N 36°05' W 005°20'3 3.3
2017-Feb-23 08:34N 36°04' W 005°16'7 6.9
2017-Feb-23 07:33N 36°07' W 005°08'3 3.1
2017-Feb-23 06:33N 36°06' W 005°04'1 0.7
2017-Feb-23 05:32N 36°06' W 005°03'0 0.1
2017-Feb-23 04:33N 36°06' W 005°03'1 1.0
2017-Feb-23 03:33N 36°06' W 005°02'1 0.9
2017-Feb-23 02:23N 36°07' W 005°02'0 0.5
2017-Feb-23 01:24N 36°08' W 005°02'1 1.1
2017-Feb-23 00:30N 36°07' W 005°03'0 0.4
2017-Feb-22 23:23N 36°07' W 005°03'1 1.0
2017-Feb-22 22:31N 36°07' W 005°02'1 0.6
2017-Feb-22 21:30N 36°07' W 005°03'1 1.4
2017-Feb-22 20:27N 36°08' W 005°01'3 2.9
2017-Feb-22 19:31N 36°07' W 004°58'2 1.9
2017-Feb-22 18:33N 36°06' W 005°00'1 0.6
2017-Feb-22 17:32N 36°06' W 004°60'0 0.1
2017-Feb-22 16:14N 36°06' W 004°60'2 2.4
2017-Feb-22 15:33N 36°06' W 005°02'1 0.8
2017-Feb-22 14:27N 36°07' W 005°03'2 1.1
2017-Feb-22 12:33N 36°09' W 005°02'1 1.0
2017-Feb-22 11:33N 36°09' W 005°01'1 1.0
2017-Feb-22 10:33N 36°09' W 005°02'0 0.3
2017-Feb-22 09:31N 36°09' W 005°02'2 1.2
2017-Feb-22 07:33N 36°10' W 004°60'3 2.7
2017-Feb-22 06:31N 36°13' W 004°57'7 7.7
2017-Feb-22 05:33N 36°19' W 004°52'2 0.8
2017-Feb-22 03:33N 36°17' W 004°53'2 0.4
2017-Feb-21 21:32N 36°15' W 004°54'9 1.2
2017-Feb-21 14:23N 36°10' W 005°02'5 6.0
2017-Feb-21 13:33N 36°09' W 005°08'3 3.0
2017-Feb-21 12:34N 36°10' W 005°12'2 1.8
2017-Feb-21 11:34N 36°10' W 005°10'1 1.4
2017-Feb-21 10:31N 36°10' W 005°08'2 2.5
2017-Feb-21 09:34N 36°08' W 005°10'7 6.3
2017-Feb-21 08:31N 36°08' W 005°02'  
2017-Feb-18 07:33N 36°37' E 013°29'1312.6
2017-Feb-18 06:33N 36°33' E 013°44'1212.5
2017-Feb-18 05:33N 36°29' E 013°59'1312.7
2017-Feb-18 04:33N 36°25' E 014°14'1312.8
2017-Feb-18 03:33N 36°21' E 014°29'1312.7
2017-Feb-18 02:33N 36°20' E 014°44'1412.5
2017-Feb-18 01:27N 36°20' E 015°01'1212.4
2017-Feb-18 00:27N 36°19' E 015°17'  

Dump ship's entire track history